createdAt,value
2023-02-19T00:00:37.067Z,4.37
2023-02-19T00:04:40.016Z,4.57
2023-02-19T00:08:42.699Z,3.80
2023-02-19T00:12:45.473Z,4.47
2023-02-19T00:16:50.297Z,4.50
2023-02-19T00:20:52.961Z,4.23
2023-02-19T00:24:55.596Z,4.43
2023-02-19T00:28:58.666Z,4.03
2023-02-19T00:33:02.962Z,4.37
2023-02-19T00:37:05.867Z,4.20
2023-02-19T00:41:19.986Z,3.90
2023-02-19T00:45:22.678Z,4.57
2023-02-19T00:49:26.699Z,4.27
2023-02-19T00:53:29.734Z,3.90
2023-02-19T00:57:32.420Z,4.03
2023-02-19T01:01:35.173Z,4.60
2023-02-19T01:05:39.472Z,4.30
2023-02-19T01:09:42.201Z,4.83
2023-02-19T01:13:45.091Z,5.07
2023-02-19T01:17:48.118Z,4.50
2023-02-19T01:21:52.188Z,3.77
2023-02-19T01:25:54.932Z,3.93
2023-02-19T01:29:57.692Z,4.33
2023-02-19T01:34:02.717Z,4.07
2023-02-19T01:38:08.295Z,5.00
2023-02-19T01:42:13.787Z,4.10
2023-02-19T01:46:16.469Z,4.20
2023-02-19T01:50:19.284Z,4.10
2023-02-19T01:54:26.719Z,3.77
2023-02-19T01:58:33.009Z,3.80
2023-02-19T02:02:35.660Z,3.70
2023-02-19T02:06:41.151Z,3.00
2023-02-19T02:10:44.489Z,3.10
2023-02-19T02:14:48.563Z,3.37
2023-02-19T02:18:59.925Z,3.27
2023-02-19T02:23:10.233Z,3.23
2023-02-19T02:27:23.158Z,3.70
2023-02-19T02:31:30.052Z,3.77
2023-02-19T02:35:36.428Z,4.60
2023-02-19T02:39:39.681Z,4.53
2023-02-19T02:43:42.925Z,4.37
2023-02-19T02:47:52.258Z,4.83
2023-02-19T02:51:55.837Z,4.70
2023-02-19T02:56:00.301Z,5.00
2023-02-19T03:00:03.136Z,4.90
2023-02-19T03:04:10.625Z,4.77
2023-02-19T03:08:15.736Z,4.53
2023-02-19T03:12:36.492Z,4.60
2023-02-19T03:17:09.323Z,4.83
2023-02-19T03:21:13.713Z,4.63
2023-02-19T03:25:36.175Z,4.40
2023-02-19T03:29:40.547Z,4.00
2023-02-19T03:33:44.900Z,4.13
2023-02-19T03:37:55.967Z,4.60
2023-02-19T03:42:02.487Z,4.00
2023-02-19T03:46:10.746Z,4.20
2023-02-19T03:50:18.808Z,4.77
2023-02-19T03:54:28.456Z,3.67
2023-02-19T03:58:36.137Z,3.43
2023-02-19T04:02:44.029Z,3.50
2023-02-19T04:06:52.617Z,3.30
2023-02-19T04:10:57.839Z,3.20
2023-02-19T04:15:04.251Z,3.10
2023-02-19T04:19:09.914Z,3.20
2023-02-19T04:23:12.891Z,2.93
2023-02-19T04:27:17.769Z,2.77
2023-02-19T04:31:23.571Z,2.60
2023-02-19T04:35:26.387Z,2.57
2023-02-19T04:39:29.351Z,3.57
2023-02-19T04:43:34.978Z,2.90
2023-02-19T04:47:37.737Z,2.20
2023-02-19T04:51:40.964Z,2.33
2023-02-19T04:55:43.613Z,2.40
2023-02-19T04:59:48.555Z,2.33
2023-02-19T05:03:51.293Z,2.53
2023-02-19T05:07:53.974Z,2.30
2023-02-19T05:11:56.642Z,2.00
2023-02-19T05:16:02.549Z,2.30
2023-02-19T05:20:05.699Z,2.20
2023-02-19T05:24:08.579Z,2.17
2023-02-19T05:28:20.414Z,2.10
2023-02-19T05:32:24.965Z,1.90
2023-02-19T05:36:27.667Z,2.13
2023-02-19T05:40:30.450Z,1.60
2023-02-19T05:44:33.249Z,1.80
2023-02-19T05:48:37.763Z,1.70
2023-02-19T05:52:40.457Z,1.40
2023-02-19T05:56:43.684Z,1.60
2023-02-19T06:00:46.437Z,1.60
2023-02-19T06:04:50.819Z,2.23
2023-02-19T06:08:53.993Z,1.43
2023-02-19T06:12:59.399Z,1.47
2023-02-19T06:17:02.200Z,1.37
2023-02-19T06:21:14.227Z,1.33
2023-02-19T06:25:17.393Z,1.60
2023-02-19T06:29:20.081Z,1.80
2023-02-19T06:33:23.030Z,1.77
2023-02-19T06:37:27.486Z,1.67
2023-02-19T06:41:30.253Z,1.53
2023-02-19T06:45:32.959Z,1.40
2023-02-19T06:49:35.637Z,1.50
2023-02-19T06:53:39.810Z,1.40
2023-02-19T06:57:42.731Z,1.40
2023-02-19T07:01:49.239Z,1.53
2023-02-19T07:05:51.971Z,3.30
2023-02-19T07:09:56.041Z,2.20
2023-02-19T07:13:59.309Z,5.77
2023-02-19T07:18:10.240Z,2.20
2023-02-19T07:22:12.940Z,1.20
2023-02-19T07:26:19.064Z,1.17
2023-02-19T07:30:21.927Z,1.37
2023-02-19T07:34:25.023Z,1.10
2023-02-19T07:38:27.846Z,1.20
2023-02-19T07:42:31.918Z,1.20
2023-02-19T07:46:35.819Z,1.50
2023-02-19T07:50:38.535Z,1.30
2023-02-19T07:54:41.248Z,1.10
2023-02-19T07:58:46.221Z,1.50
2023-02-19T08:03:01.124Z,1.53
2023-02-19T08:07:05.389Z,1.47
2023-02-19T08:11:25.932Z,2.13
2023-02-19T08:15:30.660Z,1.13
2023-02-19T08:19:33.450Z,1.37
2023-02-19T08:23:36.150Z,1.30
2023-02-19T08:27:38.891Z,1.40
2023-02-19T08:31:43.393Z,1.47
2023-02-19T08:35:46.423Z,1.37
2023-02-19T08:39:52.033Z,0.97
2023-02-19T08:43:54.741Z,0.83
2023-02-19T08:47:59.050Z,1.03
2023-02-19T08:52:01.810Z,1.30
2023-02-19T08:56:06.535Z,1.03
2023-02-19T09:00:11.170Z,0.80
2023-02-19T09:04:15.274Z,1.00
2023-02-19T09:08:19.475Z,1.43
2023-02-19T09:12:22.481Z,0.90
2023-02-19T09:16:25.129Z,1.20
2023-02-19T09:20:29.159Z,1.20
2023-02-19T09:24:33.747Z,1.17
2023-02-19T09:28:36.705Z,4.27
2023-02-19T09:32:39.449Z,1.20
2023-02-19T09:36:43.758Z,1.40
2023-02-19T09:40:46.873Z,2.80
2023-02-19T09:44:52.533Z,2.57
2023-02-19T09:48:57.313Z,1.93
2023-02-19T09:53:04.771Z,2.10
2023-02-19T09:57:12.860Z,1.70
2023-02-19T10:01:16.492Z,3.30
2023-02-19T10:05:19.451Z,2.10
2023-02-19T10:09:26.946Z,2.77
2023-02-19T10:13:32.619Z,1.80
2023-02-19T10:17:36.880Z,2.20
2023-02-19T10:21:39.640Z,2.07
2023-02-19T10:25:46.858Z,3.13
2023-02-19T10:29:55.795Z,2.07
2023-02-19T10:34:00.275Z,2.60
2023-02-19T10:38:03.773Z,2.47
2023-02-19T10:42:15.509Z,2.40
2023-02-19T10:46:22.186Z,4.67
2023-02-19T10:50:28.457Z,306.67
2023-02-19T10:54:33.074Z,218.00
2023-02-19T10:58:37.882Z,248.23
2023-02-19T11:02:40.581Z,358.63
2023-02-19T11:06:43.652Z,337.90
2023-02-19T11:10:49.123Z,127.27
2023-02-19T11:14:55.813Z,131.40
2023-02-19T11:18:59.939Z,146.67
2023-02-19T11:23:07.716Z,84.07
2023-02-19T11:27:22.820Z,94.60
2023-02-19T11:31:29.581Z,34.50
2023-02-19T11:35:35.072Z,23.33
2023-02-19T11:39:38.095Z,22.83
2023-02-19T11:44:00.022Z,3.73
2023-02-19T11:48:25.770Z,2.00
2023-02-19T11:52:32.707Z,2.70
2023-02-19T11:56:38.369Z,3.30
2023-02-19T12:00:46.313Z,2.63
2023-02-19T12:05:14.517Z,21.90
2023-02-19T12:09:24.086Z,9.17
2023-02-19T12:13:34.421Z,3.23
2023-02-19T12:17:56.706Z,2.60
2023-02-19T12:22:17.826Z,2.50
2023-02-19T12:26:23.604Z,2.73
2023-02-19T12:30:42.755Z,3.10
2023-02-19T12:35:13.461Z,4.50
2023-02-19T12:39:23.743Z,3.00
2023-02-19T12:43:26.703Z,2.20
2023-02-19T12:47:35.121Z,3.77
2023-02-19T12:51:41.809Z,3.07
2023-02-19T12:55:46.182Z,2.43
2023-02-19T12:59:51.496Z,3.20
2023-02-19T13:04:05.655Z,2.73
2023-02-19T13:08:13.659Z,3.63
2023-02-19T13:12:23.108Z,3.87
2023-02-19T13:16:26.642Z,3.47
2023-02-19T13:20:32.550Z,2.17
2023-02-19T13:24:37.916Z,3.33
2023-02-19T13:28:53.450Z,2.17
2023-02-19T13:33:03.542Z,2.60
2023-02-19T13:37:09.676Z,2.73
2023-02-19T13:41:21.132Z,2.37
2023-02-19T13:45:30.745Z,1.20
2023-02-19T13:49:45.300Z,1.73
2023-02-19T13:53:57.243Z,2.33
2023-02-19T13:58:33.156Z,1.50
2023-02-19T14:02:37.392Z,1.90
2023-02-19T14:07:17.195Z,1.10
2023-02-19T14:11:20.696Z,1.67
2023-02-19T14:15:41.526Z,2.07
2023-02-19T14:19:53.631Z,2.90
2023-02-19T14:23:57.920Z,1.57
2023-02-19T14:28:03.485Z,2.17
2023-02-19T14:32:06.738Z,1.87
2023-02-19T14:36:18.915Z,2.10
2023-02-19T14:40:24.520Z,3.60
2023-02-19T14:44:30.573Z,2.40
2023-02-19T14:48:35.788Z,2.17
2023-02-19T14:52:43.578Z,3.40
2023-02-19T14:56:50.474Z,2.40
2023-02-19T15:00:53.396Z,2.73
2023-02-19T15:04:58.102Z,3.27
2023-02-19T15:09:05.164Z,3.10
2023-02-19T15:13:11.465Z,3.67
2023-02-19T15:17:18.084Z,3.27
2023-02-19T15:21:25.430Z,4.47
2023-02-19T15:25:33.338Z,5.43
2023-02-19T15:29:35.999Z,4.13
2023-02-19T15:33:40.206Z,3.70
2023-02-19T15:37:42.913Z,4.07
2023-02-19T15:41:56.295Z,3.50
2023-02-19T15:46:07.020Z,4.07
2023-02-19T15:50:12.591Z,6.40
2023-02-19T15:54:19.220Z,2.80
2023-02-19T15:58:27.766Z,4.77
2023-02-19T16:02:33.576Z,4.10
2023-02-19T16:06:54.867Z,3.40
2023-02-19T16:11:01.085Z,4.63
2023-02-19T16:15:17.161Z,5.30
2023-02-19T16:19:28.224Z,2.83
2023-02-19T16:23:31.396Z,3.93
2023-02-19T16:27:36.916Z,4.23
2023-02-19T16:31:41.331Z,2.30
2023-02-19T16:35:45.074Z,3.23
2023-02-19T16:39:48.630Z,3.40
2023-02-19T16:43:51.408Z,3.77
2023-02-19T16:47:55.466Z,4.07
2023-02-19T16:52:00.020Z,2.23
2023-02-19T16:56:02.874Z,5.80
2023-02-19T17:00:06.083Z,4.27
2023-02-19T17:04:12.776Z,5.80
2023-02-19T17:08:27.836Z,5.43
2023-02-19T17:12:31.456Z,2.73
2023-02-19T17:16:39.733Z,3.97
2023-02-19T17:20:46.899Z,3.73
2023-02-19T17:24:52.752Z,4.73
2023-02-19T17:28:56.915Z,3.20
2023-02-19T17:32:59.876Z,4.03
2023-02-19T17:37:04.204Z,4.50
2023-02-19T17:41:06.933Z,5.33
2023-02-19T17:45:10.586Z,2.93
2023-02-19T17:49:13.870Z,5.93
2023-02-19T17:53:18.231Z,5.43
2023-02-19T17:57:21.448Z,3.60
2023-02-19T18:01:24.303Z,4.80
2023-02-19T18:05:27.328Z,4.47
2023-02-19T18:09:31.723Z,4.47
2023-02-19T18:13:34.698Z,5.03
2023-02-19T18:17:37.500Z,4.93
2023-02-19T18:21:40.463Z,4.60
2023-02-19T18:25:44.562Z,3.00
2023-02-19T18:29:50.629Z,3.10
2023-02-19T18:33:53.742Z,4.33
2023-02-19T18:37:56.982Z,7.70
2023-02-19T18:42:02.115Z,5.10
2023-02-19T18:46:08.305Z,3.23
2023-02-19T18:50:14.378Z,3.80
2023-02-19T18:54:20.008Z,4.80
2023-02-19T18:58:25.541Z,3.97
2023-02-19T19:02:33.693Z,4.50
2023-02-19T19:06:42.648Z,2.13
2023-02-19T19:10:45.475Z,2.60
2023-02-19T19:14:49.638Z,2.20
2023-02-19T19:18:53.277Z,3.90
2023-02-19T19:22:56.091Z,2.27
2023-02-19T19:26:58.838Z,3.07
2023-02-19T19:31:03.841Z,2.67
2023-02-19T19:35:07.075Z,2.63
2023-02-19T19:39:10.187Z,1.80
2023-02-19T19:43:13.079Z,1.70
2023-02-19T19:47:17.598Z,1.70
2023-02-19T19:51:20.344Z,2.47
2023-02-19T19:55:25.061Z,1.73
2023-02-19T19:59:27.913Z,2.60
2023-02-19T20:03:33.673Z,1.70
2023-02-19T20:07:36.512Z,2.13
2023-02-19T20:11:45.506Z,2.50
2023-02-19T20:15:48.289Z,3.13
2023-02-19T20:19:52.636Z,5.10
2023-02-19T20:23:55.318Z,3.47
2023-02-19T20:27:57.992Z,2.30
2023-02-19T20:32:11.094Z,2.10
2023-02-19T20:36:15.819Z,2.63
2023-02-19T20:40:19.177Z,2.60
2023-02-19T20:44:21.974Z,3.67
2023-02-19T20:48:24.724Z,2.83
2023-02-19T20:52:28.808Z,3.27
2023-02-19T20:56:31.568Z,2.80
2023-02-19T21:00:34.294Z,1.77
2023-02-19T21:04:38.953Z,3.07
2023-02-19T21:08:45.600Z,2.00
2023-02-19T21:12:50.359Z,2.70
2023-02-19T21:16:53.648Z,3.70
2023-02-19T21:20:56.424Z,2.20
2023-02-19T21:25:00.524Z,2.40
2023-02-19T21:29:03.505Z,2.20
2023-02-19T21:33:06.491Z,1.90
2023-02-19T21:37:09.240Z,1.67
2023-02-19T21:41:13.277Z,1.83
2023-02-19T21:45:16.082Z,2.97
2023-02-19T21:49:19.061Z,2.13
2023-02-19T21:53:22.012Z,2.13
2023-02-19T21:57:26.155Z,2.30
2023-02-19T22:01:30.951Z,2.43
2023-02-19T22:05:33.917Z,3.27
2023-02-19T22:09:38.336Z,2.33
2023-02-19T22:13:42.356Z,3.40
2023-02-19T22:17:45.794Z,4.10
2023-02-19T22:21:48.569Z,4.97
2023-02-19T22:25:51.744Z,3.40
2023-02-19T22:29:56.409Z,4.03
2023-02-19T22:33:59.150Z,6.97
2023-02-19T22:38:01.995Z,5.73
2023-02-19T22:42:04.924Z,3.97
2023-02-19T22:46:12.784Z,4.43
2023-02-19T22:50:18.497Z,5.43
2023-02-19T22:54:24.982Z,3.77
2023-02-19T22:58:27.962Z,4.17
2023-02-19T23:02:32.043Z,5.93
2023-02-19T23:06:35.604Z,5.37
2023-02-19T23:10:38.299Z,4.27
2023-02-19T23:14:40.969Z,5.60
2023-02-19T23:18:45.042Z,4.73
2023-02-19T23:22:49.905Z,5.33
2023-02-19T23:26:54.739Z,6.27
2023-02-19T23:30:57.545Z,6.47
2023-02-19T23:35:01.905Z,6.67
2023-02-19T23:39:04.922Z,6.30
2023-02-19T23:43:07.597Z,6.90
2023-02-19T23:47:10.395Z,7.57
2023-02-19T23:51:15.018Z,6.30
2023-02-19T23:55:17.874Z,5.67
2023-02-19T23:59:20.825Z,5.83
